sensor_id;sensor_type;location;lat;lon;timestamp;temperature;humidity
20416;DHT22;10367;52.202;5.996;2023-04-03T00:02:22;3.10;99.90
20416;DHT22;10367;52.202;5.996;2023-04-03T00:04:51;3.10;99.90
20416;DHT22;10367;52.202;5.996;2023-04-03T00:07:19;3.10;99.90
20416;DHT22;10367;52.202;5.996;2023-04-03T00:09:48;3.10;99.90
20416;DHT22;10367;52.202;5.996;2023-04-03T00:12:16;3.10;99.90
20416;DHT22;10367;52.202;5.996;2023-04-03T00:14:45;3.10;99.90
20416;DHT22;10367;52.202;5.996;2023-04-03T00:17:15;3.00;99.90
20416;DHT22;10367;52.202;5.996;2023-04-03T00:19:44;3.00;99.90
20416;DHT22;10367;52.202;5.996;2023-04-03T00:22:12;3.00;99.90
20416;DHT22;10367;52.202;5.996;2023-04-03T00:24:41;2.90;99.90
20416;DHT22;10367;52.202;5.996;2023-04-03T00:27:10;2.90;99.90
20416;DHT22;10367;52.202;5.996;2023-04-03T00:29:39;2.90;99.90
20416;DHT22;10367;52.202;5.996;2023-04-03T00:32:07;2.90;99.90
20416;DHT22;10367;52.202;5.996;2023-04-03T00:34:37;2.80;99.90
20416;DHT22;10367;52.202;5.996;2023-04-03T00:37:06;2.80;99.90
20416;DHT22;10367;52.202;5.996;2023-04-03T00:39:35;2.80;99.90
20416;DHT22;10367;52.202;5.996;2023-04-03T00:42:03;2.80;99.90
20416;DHT22;10367;52.202;5.996;2023-04-03T00:47:38;2.70;99.90
20416;DHT22;10367;52.202;5.996;2023-04-03T00:50:09;2.80;99.90
20416;DHT22;10367;52.202;5.996;2023-04-03T00:52:39;2.70;99.90
20416;DHT22;10367;52.202;5.996;2023-04-03T00:55:09;2.60;99.90
20416;DHT22;10367;52.202;5.996;2023-04-03T00:57:38;2.60;99.90
20416;DHT22;10367;52.202;5.996;2023-04-03T01:00:10;2.60;99.90
20416;DHT22;10367;52.202;5.996;2023-04-03T01:02:39;2.50;99.90
20416;DHT22;10367;52.202;5.996;2023-04-03T01:05:10;2.40;99.90
20416;DHT22;10367;52.202;5.996;2023-04-03T01:07:39;2.40;99.90
20416;DHT22;10367;52.202;5.996;2023-04-03T01:10:11;2.30;99.90
20416;DHT22;10367;52.202;5.996;2023-04-03T01:12:42;2.30;99.90
20416;DHT22;10367;52.202;5.996;2023-04-03T01:15:15;2.30;99.90
20416;DHT22;10367;52.202;5.996;2023-04-03T01:17:45;2.20;99.90
20416;DHT22;10367;52.202;5.996;2023-04-03T01:23:30;2.10;99.90
20416;DHT22;10367;52.202;5.996;2023-04-03T01:26:02;2.00;99.90
20416;DHT22;10367;52.202;5.996;2023-04-03T01:28:32;2.00;99.90
20416;DHT22;10367;52.202;5.996;2023-04-03T01:31:09;2.00;99.90
20416;DHT22;10367;52.202;5.996;2023-04-03T01:33:42;2.00;99.90
20416;DHT22;10367;52.202;5.996;2023-04-03T01:36:15;2.00;99.90
20416;DHT22;10367;52.202;5.996;2023-04-03T01:38:44;1.90;99.90
20416;DHT22;10367;52.202;5.996;2023-04-03T01:41:12;1.90;99.90
20416;DHT22;10367;52.202;5.996;2023-04-03T01:43:41;1.90;99.90
20416;DHT22;10367;52.202;5.996;2023-04-03T01:46:10;1.90;99.90
20416;DHT22;10367;52.202;5.996;2023-04-03T01:48:39;1.80;99.90
20416;DHT22;10367;52.202;5.996;2023-04-03T01:51:09;1.80;99.90
20416;DHT22;10367;52.202;5.996;2023-04-03T01:53:38;1.70;99.90
20416;DHT22;10367;52.202;5.996;2023-04-03T01:56:07;1.70;99.90
20416;DHT22;10367;52.202;5.996;2023-04-03T01:58:36;1.70;99.90
20416;DHT22;10367;52.202;5.996;2023-04-03T02:01:05;1.60;99.90
20416;DHT22;10367;52.202;5.996;2023-04-03T02:03:34;1.70;99.90
20416;DHT22;10367;52.202;5.996;2023-04-03T02:06:03;1.70;99.90
20416;DHT22;10367;52.202;5.996;2023-04-03T02:08:33;1.60;99.90
20416;DHT22;10367;52.202;5.996;2023-04-03T02:11:02;1.50;99.90
20416;DHT22;10367;52.202;5.996;2023-04-03T02:13:31;1.50;99.90
20416;DHT22;10367;52.202;5.996;2023-04-03T02:16:05;1.50;99.90
20416;DHT22;10367;52.202;5.996;2023-04-03T02:18:34;1.50;99.90
20416;DHT22;10367;52.202;5.996;2023-04-03T02:21:03;1.50;99.90
20416;DHT22;10367;52.202;5.996;2023-04-03T02:23:33;1.50;99.90
20416;DHT22;10367;52.202;5.996;2023-04-03T02:26:05;1.30;99.90
20416;DHT22;10367;52.202;5.996;2023-04-03T02:28:34;1.30;99.90
20416;DHT22;10367;52.202;5.996;2023-04-03T02:31:04;1.20;99.90
20416;DHT22;10367;52.202;5.996;2023-04-03T02:33:34;1.10;99.90
20416;DHT22;10367;52.202;5.996;2023-04-03T02:36:05;1.00;99.90
20416;DHT22;10367;52.202;5.996;2023-04-03T02:38:35;1.00;99.90
20416;DHT22;10367;52.202;5.996;2023-04-03T02:41:06;1.00;99.90
20416;DHT22;10367;52.202;5.996;2023-04-03T02:43:35;1.00;99.90
20416;DHT22;10367;52.202;5.996;2023-04-03T02:46:04;1.00;99.90
20416;DHT22;10367;52.202;5.996;2023-04-03T02:48:34;1.00;99.90
20416;DHT22;10367;52.202;5.996;2023-04-03T02:51:03;1.00;99.90
20416;DHT22;10367;52.202;5.996;2023-04-03T02:53:32;1.10;99.90
20416;DHT22;10367;52.202;5.996;2023-04-03T02:56:03;1.00;99.90
20416;DHT22;10367;52.202;5.996;2023-04-03T02:58:32;1.10;99.90
20416;DHT22;10367;52.202;5.996;2023-04-03T03:01:01;1.00;99.90
20416;DHT22;10367;52.202;5.996;2023-04-03T03:03:29;1.00;99.90
20416;DHT22;10367;52.202;5.996;2023-04-03T03:06:02;0.90;99.90
20416;DHT22;10367;52.202;5.996;2023-04-03T03:08:31;0.80;99.90
20416;DHT22;10367;52.202;5.996;2023-04-03T03:11:00;0.80;99.90
20416;DHT22;10367;52.202;5.996;2023-04-03T03:13:30;0.80;99.90
20416;DHT22;10367;52.202;5.996;2023-04-03T03:15:59;0.80;99.90
20416;DHT22;10367;52.202;5.996;2023-04-03T03:18:28;0.80;99.90
20416;DHT22;10367;52.202;5.996;2023-04-03T03:20:58;0.90;99.90
20416;DHT22;10367;52.202;5.996;2023-04-03T03:23:29;0.90;99.90
20416;DHT22;10367;52.202;5.996;2023-04-03T03:26:00;0.90;99.90
20416;DHT22;10367;52.202;5.996;2023-04-03T03:28:31;0.80;99.90
20416;DHT22;10367;52.202;5.996;2023-04-03T03:31:00;0.70;99.90
20416;DHT22;10367;52.202;5.996;2023-04-03T03:33:29;0.70;99.90
20416;DHT22;10367;52.202;5.996;2023-04-03T03:35:57;0.70;99.90
20416;DHT22;10367;52.202;5.996;2023-04-03T03:38:26;0.70;99.90
20416;DHT22;10367;52.202;5.996;2023-04-03T03:40:55;0.70;99.90
20416;DHT22;10367;52.202;5.996;2023-04-03T03:43:24;0.60;99.90
20416;DHT22;10367;52.202;5.996;2023-04-03T03:45:54;0.70;99.90
20416;DHT22;10367;52.202;5.996;2023-04-03T03:48:23;0.70;99.90
20416;DHT22;10367;52.202;5.996;2023-04-03T03:50:52;0.70;99.90
20416;DHT22;10367;52.202;5.996;2023-04-03T03:53:21;0.60;99.90
20416;DHT22;10367;52.202;5.996;2023-04-03T03:55:49;0.70;99.90
20416;DHT22;10367;52.202;5.996;2023-04-03T03:58:18;0.60;99.90
20416;DHT22;10367;52.202;5.996;2023-04-03T04:00:47;0.60;99.90
20416;DHT22;10367;52.202;5.996;2023-04-03T04:03:17;0.60;99.90
20416;DHT22;10367;52.202;5.996;2023-04-03T04:05:46;0.60;99.90
20416;DHT22;10367;52.202;5.996;2023-04-03T04:08:15;0.40;99.90
20416;DHT22;10367;52.202;5.996;2023-04-03T04:10:43;0.30;99.90
20416;DHT22;10367;52.202;5.996;2023-04-03T04:13:12;0.20;99.90
20416;DHT22;10367;52.202;5.996;2023-04-03T04:15:40;0.20;99.90
20416;DHT22;10367;52.202;5.996;2023-04-03T04:18:10;0.20;99.90
20416;DHT22;10367;52.202;5.996;2023-04-03T04:20:40;0.20;99.90
20416;DHT22;10367;52.202;5.996;2023-04-03T04:23:08;0.20;99.90
20416;DHT22;10367;52.202;5.996;2023-04-03T04:25:37;0.20;99.90
20416;DHT22;10367;52.202;5.996;2023-04-03T04:28:06;0.20;99.90
20416;DHT22;10367;52.202;5.996;2023-04-03T04:30:35;0.20;99.90
20416;DHT22;10367;52.202;5.996;2023-04-03T04:33:03;0.10;99.90
20416;DHT22;10367;52.202;5.996;2023-04-03T04:35:33;0.10;99.90
20416;DHT22;10367;52.202;5.996;2023-04-03T04:38:03;0.10;99.90
20416;DHT22;10367;52.202;5.996;2023-04-03T04:40:51;0.10;99.90
20416;DHT22;10367;52.202;5.996;2023-04-03T04:43:20;0.20;99.90
20416;DHT22;10367;52.202;5.996;2023-04-03T04:45:48;0.20;99.90
20416;DHT22;10367;52.202;5.996;2023-04-03T04:48:17;0.20;99.90
20416;DHT22;10367;52.202;5.996;2023-04-03T04:50:45;0.20;99.90
20416;DHT22;10367;52.202;5.996;2023-04-03T04:53:15;0.20;99.90
20416;DHT22;10367;52.202;5.996;2023-04-03T04:55:44;0.20;99.90
20416;DHT22;10367;52.202;5.996;2023-04-03T04:58:13;0.20;99.90
20416;DHT22;10367;52.202;5.996;2023-04-03T05:00:41;0.10;99.90
20416;DHT22;10367;52.202;5.996;2023-04-03T05:03:10;0.10;99.90
20416;DHT22;10367;52.202;5.996;2023-04-03T05:05:39;0.10;99.90
20416;DHT22;10367;52.202;5.996;2023-04-03T05:08:08;0.00;99.90
20416;DHT22;10367;52.202;5.996;2023-04-03T05:10:38;0.00;99.90
20416;DHT22;10367;52.202;5.996;2023-04-03T05:13:08;0.00;99.90
20416;DHT22;10367;52.202;5.996;2023-04-03T05:15:36;0.00;99.90
20416;DHT22;10367;52.202;5.996;2023-04-03T05:18:06;0.00;99.90
20416;DHT22;10367;52.202;5.996;2023-04-03T05:20:35;0.00;99.90
20416;DHT22;10367;52.202;5.996;2023-04-03T05:23:05;0.00;99.90
20416;DHT22;10367;52.202;5.996;2023-04-03T05:25:33;0.00;99.90
20416;DHT22;10367;52.202;5.996;2023-04-03T05:28:08;0.10;99.90
20416;DHT22;10367;52.202;5.996;2023-04-03T05:30:37;0.20;99.90
20416;DHT22;10367;52.202;5.996;2023-04-03T05:33:05;0.20;99.90
20416;DHT22;10367;52.202;5.996;2023-04-03T05:35:35;0.20;99.90
20416;DHT22;10367;52.202;5.996;2023-04-03T05:38:07;0.30;99.90
20416;DHT22;10367;52.202;5.996;2023-04-03T05:40:37;0.30;99.90
20416;DHT22;10367;52.202;5.996;2023-04-03T05:43:07;0.30;99.90
20416;DHT22;10367;52.202;5.996;2023-04-03T05:45:35;0.30;99.90
20416;DHT22;10367;52.202;5.996;2023-04-03T05:48:04;0.40;99.90
20416;DHT22;10367;52.202;5.996;2023-04-03T05:50:33;0.40;99.90
20416;DHT22;10367;52.202;5.996;2023-04-03T05:53:02;0.40;99.90
20416;DHT22;10367;52.202;5.996;2023-04-03T05:55:32;0.50;99.90
20416;DHT22;10367;52.202;5.996;2023-04-03T05:58:01;0.50;99.90
20416;DHT22;10367;52.202;5.996;2023-04-03T06:00:31;0.60;99.90
20416;DHT22;10367;52.202;5.996;2023-04-03T06:02:59;0.60;99.90
20416;DHT22;10367;52.202;5.996;2023-04-03T06:05:28;0.60;99.90
20416;DHT22;10367;52.202;5.996;2023-04-03T06:07:57;0.70;99.90
20416;DHT22;10367;52.202;5.996;2023-04-03T06:10:25;0.70;99.90
20416;DHT22;10367;52.202;5.996;2023-04-03T06:12:54;0.70;99.90
20416;DHT22;10367;52.202;5.996;2023-04-03T06:15:23;0.80;99.90
20416;DHT22;10367;52.202;5.996;2023-04-03T06:17:53;0.90;99.90
20416;DHT22;10367;52.202;5.996;2023-04-03T06:20:22;0.90;99.90
20416;DHT22;10367;52.202;5.996;2023-04-03T06:22:51;1.00;99.90
20416;DHT22;10367;52.202;5.996;2023-04-03T06:25:19;1.00;99.90
20416;DHT22;10367;52.202;5.996;2023-04-03T06:27:48;1.10;99.90
20416;DHT22;10367;52.202;5.996;2023-04-03T06:30:17;1.10;99.90
20416;DHT22;10367;52.202;5.996;2023-04-03T06:32:45;1.20;99.90
20416;DHT22;10367;52.202;5.996;2023-04-03T06:35:16;1.30;99.90
20416;DHT22;10367;52.202;5.996;2023-04-03T06:37:44;1.40;99.90
20416;DHT22;10367;52.202;5.996;2023-04-03T06:40:18;1.40;99.90
20416;DHT22;10367;52.202;5.996;2023-04-03T06:42:48;1.40;99.90
20416;DHT22;10367;52.202;5.996;2023-04-03T06:45:17;1.50;99.90
20416;DHT22;10367;52.202;5.996;2023-04-03T06:47:46;1.60;99.90
20416;DHT22;10367;52.202;5.996;2023-04-03T06:50:17;1.60;99.90
20416;DHT22;10367;52.202;5.996;2023-04-03T06:52:45;1.80;99.90
20416;DHT22;10367;52.202;5.996;2023-04-03T06:55:14;1.90;99.90
20416;DHT22;10367;52.202;5.996;2023-04-03T06:57:43;2.00;99.90
20416;DHT22;10367;52.202;5.996;2023-04-03T07:00:13;2.00;99.90
20416;DHT22;10367;52.202;5.996;2023-04-03T07:02:41;2.00;99.90
20416;DHT22;10367;52.202;5.996;2023-04-03T07:05:10;2.10;99.90
20416;DHT22;10367;52.202;5.996;2023-04-03T07:07:41;2.10;99.90
20416;DHT22;10367;52.202;5.996;2023-04-03T07:10:09;2.20;99.90
20416;DHT22;10367;52.202;5.996;2023-04-03T07:12:38;2.40;99.90
20416;DHT22;10367;52.202;5.996;2023-04-03T07:15:08;2.40;99.90
20416;DHT22;10367;52.202;5.996;2023-04-03T07:17:36;2.50;99.90
20416;DHT22;10367;52.202;5.996;2023-04-03T07:20:06;2.50;99.90
20416;DHT22;10367;52.202;5.996;2023-04-03T07:22:35;2.60;99.90
20416;DHT22;10367;52.202;5.996;2023-04-03T07:25:06;2.60;99.90
20416;DHT22;10367;52.202;5.996;2023-04-03T07:27:35;2.70;99.90
20416;DHT22;10367;52.202;5.996;2023-04-03T07:30:06;2.80;99.90
20416;DHT22;10367;52.202;5.996;2023-04-03T07:32:35;3.00;99.90
20416;DHT22;10367;52.202;5.996;2023-04-03T07:35:04;3.00;99.90
20416;DHT22;10367;52.202;5.996;2023-04-03T07:37:33;3.10;99.90
20416;DHT22;10367;52.202;5.996;2023-04-03T07:40:02;3.10;99.90
20416;DHT22;10367;52.202;5.996;2023-04-03T07:42:33;3.10;99.90
20416;DHT22;10367;52.202;5.996;2023-04-03T07:45:03;3.20;99.90
20416;DHT22;10367;52.202;5.996;2023-04-03T07:47:32;3.30;99.90
20416;DHT22;10367;52.202;5.996;2023-04-03T07:50:02;3.50;99.90
20416;DHT22;10367;52.202;5.996;2023-04-03T07:52:31;3.60;99.90
20416;DHT22;10367;52.202;5.996;2023-04-03T07:54:59;3.60;99.90
20416;DHT22;10367;52.202;5.996;2023-04-03T07:57:28;3.80;99.90
20416;DHT22;10367;52.202;5.996;2023-04-03T07:59:58;3.80;99.90
20416;DHT22;10367;52.202;5.996;2023-04-03T08:02:27;3.90;99.90
20416;DHT22;10367;52.202;5.996;2023-04-03T08:04:56;4.00;99.90
20416;DHT22;10367;52.202;5.996;2023-04-03T08:07:25;4.10;99.90
20416;DHT22;10367;52.202;5.996;2023-04-03T08:09:54;4.20;99.90
20416;DHT22;10367;52.202;5.996;2023-04-03T08:12:24;4.30;99.90
20416;DHT22;10367;52.202;5.996;2023-04-03T08:14:53;4.20;99.90
20416;DHT22;10367;52.202;5.996;2023-04-03T08:17:23;4.40;99.90
20416;DHT22;10367;52.202;5.996;2023-04-03T08:19:52;4.40;99.90
20416;DHT22;10367;52.202;5.996;2023-04-03T08:22:21;4.50;99.90
20416;DHT22;10367;52.202;5.996;2023-04-03T08:24:49;4.60;99.90
20416;DHT22;10367;52.202;5.996;2023-04-03T08:27:26;4.80;99.90
20416;DHT22;10367;52.202;5.996;2023-04-03T08:29:55;4.90;99.90
20416;DHT22;10367;52.202;5.996;2023-04-03T08:32:25;4.90;99.90
20416;DHT22;10367;52.202;5.996;2023-04-03T08:34:54;5.00;99.90
20416;DHT22;10367;52.202;5.996;2023-04-03T08:37:23;5.10;99.90
20416;DHT22;10367;52.202;5.996;2023-04-03T08:39:52;5.20;99.90
20416;DHT22;10367;52.202;5.996;2023-04-03T08:42:31;5.30;99.90
20416;DHT22;10367;52.202;5.996;2023-04-03T08:45:09;5.40;99.90
20416;DHT22;10367;52.202;5.996;2023-04-03T08:47:46;5.40;99.90
20416;DHT22;10367;52.202;5.996;2023-04-03T08:50:17;5.60;99.90
20416;DHT22;10367;52.202;5.996;2023-04-03T08:52:49;5.70;99.90
20416;DHT22;10367;52.202;5.996;2023-04-03T08:55:23;5.80;99.90
20416;DHT22;10367;52.202;5.996;2023-04-03T08:57:58;5.90;99.90
20416;DHT22;10367;52.202;5.996;2023-04-03T09:00:30;5.90;99.90
20416;DHT22;10367;52.202;5.996;2023-04-03T09:03:02;6.00;99.90
20416;DHT22;10367;52.202;5.996;2023-04-03T09:05:39;6.10;99.90
20416;DHT22;10367;52.202;5.996;2023-04-03T09:08:18;6.10;99.90
20416;DHT22;10367;52.202;5.996;2023-04-03T09:10:56;6.20;99.90
20416;DHT22;10367;52.202;5.996;2023-04-03T09:13:32;6.30;99.90
20416;DHT22;10367;52.202;5.996;2023-04-03T09:16:16;6.30;99.90
20416;DHT22;10367;52.202;5.996;2023-04-03T09:18:53;6.50;99.90
20416;DHT22;10367;52.202;5.996;2023-04-03T09:21:27;6.50;99.90
20416;DHT22;10367;52.202;5.996;2023-04-03T09:24:00;6.50;99.90
20416;DHT22;10367;52.202;5.996;2023-04-03T09:26:34;6.70;99.90
20416;DHT22;10367;52.202;5.996;2023-04-03T09:29:06;6.90;99.90
20416;DHT22;10367;52.202;5.996;2023-04-03T09:31:37;7.00;99.90
20416;DHT22;10367;52.202;5.996;2023-04-03T09:34:15;7.10;99.90
20416;DHT22;10367;52.202;5.996;2023-04-03T09:36:47;7.20;99.90
20416;DHT22;10367;52.202;5.996;2023-04-03T09:39:19;7.40;99.90
20416;DHT22;10367;52.202;5.996;2023-04-03T09:41:59;7.30;99.90
20416;DHT22;10367;52.202;5.996;2023-04-03T09:44:53;7.40;99.90
20416;DHT22;10367;52.202;5.996;2023-04-03T09:47:25;7.50;99.90
20416;DHT22;10367;52.202;5.996;2023-04-03T09:50:15;7.60;99.90
20416;DHT22;10367;52.202;5.996;2023-04-03T09:52:47;7.80;99.90
20416;DHT22;10367;52.202;5.996;2023-04-03T09:55:18;7.80;99.90
20416;DHT22;10367;52.202;5.996;2023-04-03T09:57:50;7.90;99.90
20416;DHT22;10367;52.202;5.996;2023-04-03T10:00:21;7.90;99.90
20416;DHT22;10367;52.202;5.996;2023-04-03T10:02:51;8.10;99.90
20416;DHT22;10367;52.202;5.996;2023-04-03T10:05:37;8.10;98.10
20416;DHT22;10367;52.202;5.996;2023-04-03T10:08:15;8.20;99.90
20416;DHT22;10367;52.202;5.996;2023-04-03T10:10:48;8.30;99.90
20416;DHT22;10367;52.202;5.996;2023-04-03T10:13:33;8.40;91.60
20416;DHT22;10367;52.202;5.996;2023-04-03T10:16:19;8.30;92.70
20416;DHT22;10367;52.202;5.996;2023-04-03T10:21:44;8.40;96.60
20416;DHT22;10367;52.202;5.996;2023-04-03T10:24:20;8.50;97.40
20416;DHT22;10367;52.202;5.996;2023-04-03T10:26:54;8.70;99.90
20416;DHT22;10367;52.202;5.996;2023-04-03T10:29:36;9.00;96.30
20416;DHT22;10367;52.202;5.996;2023-04-03T10:32:21;8.90;94.20
20416;DHT22;10367;52.202;5.996;2023-04-03T10:34:59;9.00;93.90
20416;DHT22;10367;52.202;5.996;2023-04-03T10:37:44;9.10;97.30
20416;DHT22;10367;52.202;5.996;2023-04-03T10:40:24;9.40;96.70
20416;DHT22;10367;52.202;5.996;2023-04-03T10:43:06;9.40;92.30
20416;DHT22;10367;52.202;5.996;2023-04-03T10:45:49;9.20;92.70
20416;DHT22;10367;52.202;5.996;2023-04-03T10:48:31;9.20;92.30
20416;DHT22;10367;52.202;5.996;2023-04-03T10:51:11;9.20;92.60
20416;DHT22;10367;52.202;5.996;2023-04-03T10:53:48;9.50;95.20
20416;DHT22;10367;52.202;5.996;2023-04-03T10:56:26;9.60;94.10
20416;DHT22;10367;52.202;5.996;2023-04-03T10:59:01;9.80;89.60
20416;DHT22;10367;52.202;5.996;2023-04-03T11:01:35;9.90;96.20
20416;DHT22;10367;52.202;5.996;2023-04-03T11:04:05;10.00;97.30
20416;DHT22;10367;52.202;5.996;2023-04-03T11:06:38;10.00;94.70
20416;DHT22;10367;52.202;5.996;2023-04-03T11:09:18;10.00;93.00
20416;DHT22;10367;52.202;5.996;2023-04-03T11:11:48;10.10;94.20
20416;DHT22;10367;52.202;5.996;2023-04-03T11:14:26;10.10;94.60
20416;DHT22;10367;52.202;5.996;2023-04-03T11:17:06;10.20;93.70
20416;DHT22;10367;52.202;5.996;2023-04-03T11:19:41;10.00;81.30
20416;DHT22;10367;52.202;5.996;2023-04-03T11:22:19;9.70;87.40
20416;DHT22;10367;52.202;5.996;2023-04-03T11:24:57;9.80;91.80
20416;DHT22;10367;52.202;5.996;2023-04-03T11:27:33;10.00;91.90
20416;DHT22;10367;52.202;5.996;2023-04-03T11:30:06;9.70;88.70
20416;DHT22;10367;52.202;5.996;2023-04-03T11:32:51;9.70;86.00
20416;DHT22;10367;52.202;5.996;2023-04-03T11:35:23;9.80;84.60
20416;DHT22;10367;52.202;5.996;2023-04-03T11:37:54;9.90;90.10
20416;DHT22;10367;52.202;5.996;2023-04-03T11:40:25;10.00;81.80
20416;DHT22;10367;52.202;5.996;2023-04-03T11:43:04;10.10;90.10
20416;DHT22;10367;52.202;5.996;2023-04-03T11:45:36;10.50;90.60
20416;DHT22;10367;52.202;5.996;2023-04-03T11:48:44;10.70;90.00
20416;DHT22;10367;52.202;5.996;2023-04-03T11:51:39;10.80;87.90
20416;DHT22;10367;52.202;5.996;2023-04-03T11:54:43;11.00;92.30
20416;DHT22;10367;52.202;5.996;2023-04-03T11:57:45;11.10;80.40
20416;DHT22;10367;52.202;5.996;2023-04-03T12:00:55;10.80;79.80
20416;DHT22;10367;52.202;5.996;2023-04-03T12:03:32;10.50;81.30
20416;DHT22;10367;52.202;5.996;2023-04-03T12:12:27;10.70;89.40
20416;DHT22;10367;52.202;5.996;2023-04-03T12:15:18;10.90;88.20
20416;DHT22;10367;52.202;5.996;2023-04-03T12:17:48;10.80;90.10
20416;DHT22;10367;52.202;5.996;2023-04-03T12:20:56;11.10;90.50
20416;DHT22;10367;52.202;5.996;2023-04-03T12:23:28;11.00;79.70
20416;DHT22;10367;52.202;5.996;2023-04-03T12:26:06;11.10;90.20
20416;DHT22;10367;52.202;5.996;2023-04-03T12:28:50;11.10;89.20
20416;DHT22;10367;52.202;5.996;2023-04-03T12:31:23;10.70;87.40
20416;DHT22;10367;52.202;5.996;2023-04-03T12:34:14;10.60;85.40
20416;DHT22;10367;52.202;5.996;2023-04-03T12:36:52;10.60;86.60
20416;DHT22;10367;52.202;5.996;2023-04-03T12:39:42;10.50;83.70
20416;DHT22;10367;52.202;5.996;2023-04-03T12:42:29;10.50;84.50
20416;DHT22;10367;52.202;5.996;2023-04-03T12:45:03;10.70;86.10
20416;DHT22;10367;52.202;5.996;2023-04-03T12:47:42;10.50;85.10
20416;DHT22;10367;52.202;5.996;2023-04-03T12:50:21;10.60;86.20
20416;DHT22;10367;52.202;5.996;2023-04-03T12:52:56;10.60;84.30
20416;DHT22;10367;52.202;5.996;2023-04-03T12:55:26;10.90;87.90
20416;DHT22;10367;52.202;5.996;2023-04-03T12:57:55;11.20;89.60
20416;DHT22;10367;52.202;5.996;2023-04-03T13:00:32;10.90;82.70
20416;DHT22;10367;52.202;5.996;2023-04-03T13:03:05;10.80;84.40
20416;DHT22;10367;52.202;5.996;2023-04-03T13:05:34;10.80;83.00
20416;DHT22;10367;52.202;5.996;2023-04-03T13:08:09;11.00;85.50
20416;DHT22;10367;52.202;5.996;2023-04-03T13:10:48;11.20;87.30
20416;DHT22;10367;52.202;5.996;2023-04-03T13:13:18;11.40;80.60
20416;DHT22;10367;52.202;5.996;2023-04-03T13:15:47;11.20;84.40
20416;DHT22;10367;52.202;5.996;2023-04-03T13:18:29;11.30;86.80
20416;DHT22;10367;52.202;5.996;2023-04-03T13:21:03;12.00;88.50
20416;DHT22;10367;52.202;5.996;2023-04-03T13:23:32;11.90;79.40
20416;DHT22;10367;52.202;5.996;2023-04-03T13:26:04;11.50;84.10
20416;DHT22;10367;52.202;5.996;2023-04-03T13:28:36;11.50;85.30
20416;DHT22;10367;52.202;5.996;2023-04-03T13:31:16;11.40;83.50
20416;DHT22;10367;52.202;5.996;2023-04-03T13:33:56;11.20;84.40
20416;DHT22;10367;52.202;5.996;2023-04-03T13:36:29;11.10;83.40
20416;DHT22;10367;52.202;5.996;2023-04-03T13:38:59;10.90;80.30
20416;DHT22;10367;52.202;5.996;2023-04-03T13:41:31;10.90;83.70
20416;DHT22;10367;52.202;5.996;2023-04-03T13:44:15;11.30;83.80
20416;DHT22;10367;52.202;5.996;2023-04-03T13:46:44;11.50;78.60
20416;DHT22;10367;52.202;5.996;2023-04-03T13:49:34;11.50;83.60
20416;DHT22;10367;52.202;5.996;2023-04-03T13:52:24;11.40;77.20
20416;DHT22;10367;52.202;5.996;2023-04-03T13:54:58;11.00;80.00
20416;DHT22;10367;52.202;5.996;2023-04-03T13:57:28;11.10;83.70
20416;DHT22;10367;52.202;5.996;2023-04-03T13:59:57;11.30;83.50
20416;DHT22;10367;52.202;5.996;2023-04-03T14:02:31;11.50;85.90
20416;DHT22;10367;52.202;5.996;2023-04-03T14:05:02;11.60;85.10
20416;DHT22;10367;52.202;5.996;2023-04-03T14:07:32;11.50;86.40
20416;DHT22;10367;52.202;5.996;2023-04-03T14:10:02;11.70;84.70
20416;DHT22;10367;52.202;5.996;2023-04-03T14:12:33;11.90;86.50
20416;DHT22;10367;52.202;5.996;2023-04-03T14:15:12;12.00;83.60
20416;DHT22;10367;52.202;5.996;2023-04-03T14:17:43;12.20;85.80
20416;DHT22;10367;52.202;5.996;2023-04-03T14:20:17;12.60;85.70
20416;DHT22;10367;52.202;5.996;2023-04-03T14:22:46;12.60;86.00
20416;DHT22;10367;52.202;5.996;2023-04-03T14:25:16;12.50;86.10
20416;DHT22;10367;52.202;5.996;2023-04-03T14:27:47;12.10;84.80
20416;DHT22;10367;52.202;5.996;2023-04-03T14:30:19;12.20;85.90
20416;DHT22;10367;52.202;5.996;2023-04-03T14:32:49;11.60;84.50
20416;DHT22;10367;52.202;5.996;2023-04-03T14:35:20;11.60;86.60
20416;DHT22;10367;52.202;5.996;2023-04-03T14:37:51;11.90;85.90
20416;DHT22;10367;52.202;5.996;2023-04-03T14:40:22;11.60;80.90
20416;DHT22;10367;52.202;5.996;2023-04-03T14:42:51;11.20;83.10
20416;DHT22;10367;52.202;5.996;2023-04-03T14:45:24;11.00;80.30
20416;DHT22;10367;52.202;5.996;2023-04-03T14:47:55;10.70;83.20
20416;DHT22;10367;52.202;5.996;2023-04-03T14:50:26;10.70;85.40
20416;DHT22;10367;52.202;5.996;2023-04-03T14:52:57;10.80;83.40
20416;DHT22;10367;52.202;5.996;2023-04-03T14:55:26;10.90;84.00
20416;DHT22;10367;52.202;5.996;2023-04-03T14:57:55;11.10;83.60
20416;DHT22;10367;52.202;5.996;2023-04-03T15:00:24;11.40;85.60
20416;DHT22;10367;52.202;5.996;2023-04-03T15:02:53;11.50;83.40
20416;DHT22;10367;52.202;5.996;2023-04-03T15:05:22;11.30;82.20
20416;DHT22;10367;52.202;5.996;2023-04-03T15:07:53;11.10;83.90
20416;DHT22;10367;52.202;5.996;2023-04-03T15:10:25;11.00;83.50
20416;DHT22;10367;52.202;5.996;2023-04-03T15:12:55;11.00;84.10
20416;DHT22;10367;52.202;5.996;2023-04-03T15:15:24;10.90;84.80
20416;DHT22;10367;52.202;5.996;2023-04-03T15:17:57;11.20;85.90
20416;DHT22;10367;52.202;5.996;2023-04-03T15:20:27;11.30;85.20
20416;DHT22;10367;52.202;5.996;2023-04-03T15:23:00;11.10;79.80
20416;DHT22;10367;52.202;5.996;2023-04-03T15:25:29;10.80;82.70
20416;DHT22;10367;52.202;5.996;2023-04-03T15:27:58;10.80;84.00
20416;DHT22;10367;52.202;5.996;2023-04-03T15:30:28;11.20;84.00
20416;DHT22;10367;52.202;5.996;2023-04-03T15:32:56;11.00;83.40
20416;DHT22;10367;52.202;5.996;2023-04-03T15:35:25;10.70;84.00
20416;DHT22;10367;52.202;5.996;2023-04-03T15:37:54;10.90;87.20
20416;DHT22;10367;52.202;5.996;2023-04-03T15:40:24;11.20;85.50
20416;DHT22;10367;52.202;5.996;2023-04-03T15:42:53;11.20;85.80
20416;DHT22;10367;52.202;5.996;2023-04-03T15:45:22;11.00;84.10
20416;DHT22;10367;52.202;5.996;2023-04-03T15:47:51;10.60;83.90
20416;DHT22;10367;52.202;5.996;2023-04-03T15:50:20;10.60;85.90
20416;DHT22;10367;52.202;5.996;2023-04-03T15:52:50;11.00;87.70
20416;DHT22;10367;52.202;5.996;2023-04-03T15:55:22;11.20;86.40
20416;DHT22;10367;52.202;5.996;2023-04-03T15:57:52;11.00;85.00
20416;DHT22;10367;52.202;5.996;2023-04-03T16:00:22;10.80;86.10
20416;DHT22;10367;52.202;5.996;2023-04-03T16:02:53;10.60;82.90
20416;DHT22;10367;52.202;5.996;2023-04-03T16:05:24;10.50;84.00
20416;DHT22;10367;52.202;5.996;2023-04-03T16:07:53;10.20;82.20
20416;DHT22;10367;52.202;5.996;2023-04-03T16:10:22;10.00;82.80
20416;DHT22;10367;52.202;5.996;2023-04-03T16:12:53;10.00;83.20
20416;DHT22;10367;52.202;5.996;2023-04-03T16:15:22;10.10;83.90
20416;DHT22;10367;52.202;5.996;2023-04-03T16:17:52;10.20;83.60
20416;DHT22;10367;52.202;5.996;2023-04-03T16:20:21;10.10;85.20
20416;DHT22;10367;52.202;5.996;2023-04-03T16:22:50;10.00;83.50
20416;DHT22;10367;52.202;5.996;2023-04-03T16:25:19;10.00;85.60
20416;DHT22;10367;52.202;5.996;2023-04-03T16:27:48;10.20;85.80
20416;DHT22;10367;52.202;5.996;2023-04-03T16:30:18;10.20;84.90